Terminal Aerodrome Forecast
Issued by NWS Wilmington, OH

Home | Current Version | Previous Version | Text Only | Print | Product List | Glossary On
Versions: 1 2 3 4 5 6 7 8 9 10 11 12 13 14 15 16 17 18 19 20
000
FTUS41 KILN 281700
TAFILN
TAF
KILN 281739Z 2818/2918 VRB05KT P6SM SCT250
     FM282200 14008KT P6SM OVC200
     FM291100 17013KT P6SM BKN060 OVC120
     FM291400 20013G20KT P6SM VCSH SCT025 OVC040
     FM291600 21015G21KT 4SM -RA BR SCT010 OVC025=

USA.gov is the U.S. government's official web portal to all federal, state and local government web resources and services.